AirNav   Everest Fuels
 
 458 users online  

36AK Flyway Farm Airstrip
Wasilla, Alaska, USA

GOING TO WASILLA?


FAA INFORMATION EFFECTIVE 16 JULY 2020

Location

FAA Identifier: 36AK
Lat/Long: 61-20-36.0200N 150-03-59.8700W
61-20.600333N 150-03.997833W
61.3433389,-150.0666306
(estimated)
Elevation: 150 ft. / 46 m (estimated)
Variation: 22E (2000)
From city: 25 miles SW of WASILLA, AK
Time zone: UTC -8 (UTC -9 during Standard Time)
Zip code: 99687

Airport Operations

Airport use: Private use. Permission required prior to landing
Activation date: 07/2002
Control tower: no
ARTCC: ANCHORAGE CENTER
FSS: KENAI FLIGHT SERVICE STATION [907-283-7211]
Attendance: UNATNDD
Wind indicator: yes
Segmented circle: no

Airport Communications

CTAF: 122.9
WX ASOS at LHD (10 nm S): PHONE 907-245-5432
WX ASOS at MRI (10 nm SE): 124.25 (907-271-5277)
WX ASOS at ANC (10 nm S): PHONE 907-271-5278
WX ASOS at FRN (13 nm E): 134.25
WX AWOS-3P at BCV (17 nm E): 135.55 (907-688-0826)

Nearby radio navigation aids

VOR radial/distance  VOR name  Freq  Var
TEDr326/11.0ANCHORAGE VOR/DME113.1518E
BGQr173/13.9BIG LAKE VORTAC112.5019E

 
NDB name  Hdg/Dist  Freq  Var  ID
CAMPBELL LAKE341/10.433816ECMQ -.-. -- --.-

Airport Services

Runway Information

Runway 18/36

Dimensions: 2000 x 75 ft. / 610 x 23 m
Surface: turf
Runway edge markings: RY OUTLINED WITH ORANGE CONES
RUNWAY 18  RUNWAY 36
Traffic pattern: leftleft

Runway 9/27

Dimensions: 1300 x 75 ft. / 396 x 23 m
Surface: turf
Runway edge markings: RY OUTLINED WITH ORANGE CONES
RUNWAY 9  RUNWAY 27
Traffic pattern: leftleft

Runway 17W/35W

Dimensions: 2100 x 100 ft. / 640 x 30 m
Surface: water
RUNWAY 17W  RUNWAY 35W
Traffic pattern: leftleft

Airport Ownership and Management from official FAA records

Ownership: Privately-owned
Owner: FLYWAY FARM, LLC
2825 ILLIAMNA AVE
ANCHORAGE, AK 99517
Phone 907-204-8907
Manager: DEE HANSON
4125 PTARMIGAN TERRACE
ANCHORAGE, AK 99516
Phone (907) 440-6488

Airport Operational Statistics

Aircraft based on the field: 3
Single engine airplanes: 3
    

Instrument Procedures

There are no published instrument procedures at 36AK.

Some nearby airports with instrument procedures:

PAED - Elmendorf Air Force Base (9 nm SE)
PAMR - Merrill Field Airport (10 nm SE)
PANC - Ted Stevens Anchorage International Airport (10 nm S)
PAFR - Bryant Army Airfield Heliport (13 nm E)
PAGQ - Big Lake Airport (14 nm NE)
 
Loc | Ops | Rwys | IFR | FBO | Links
Com | Nav | Svcs | Stats | Notes

Crowley
 
Area around 36AK (Flyway Farm Airstrip)
 
Road maps at: MapQuest Bing Google
 
Aerial photo
No photo
 
Sectional chart

 
Airport distance calculator
Flying to Flyway Farm Airstrip? Find the distance to fly.

From to 36AK

Sunrise and sunset
Times for 06-Aug-2020
 Local
(UTC-8)
 Zulu
(UTC)
Morning civil twilight04:4812:48
Sunrise05:4913:49
Sunset22:2306:23
Evening civil twilight23:2407:24

Current date and time
Zulu (UTC)  06-Aug-2020 10:11:14
Local (UTC-8)  06-Aug-2020 02:11:14
 
METAR
PAED 
10nm SE 
060956Z 04004KT 10SM OVC075 16/09 A2957 RMK AO2A SLP008 T01610088 $
PAMR 
10nm SE 
060953Z 00000KT 10SM BKN075 18/06 A2957 RMK AO2 SLP013 T01780061
PALH 
10nm S 
060953Z 17006KT 10SM BKN080 16/09 A2959 RMK AO2 SLP019 T01610089 $
PANC 
11nm S 
060953Z 15016G24KT 10SM SCT075 BKN120 16/09 A2958 RMK AO2 PK WND 15026/0935 CIG 075 N SLP016 T01560094
PAFR 
13nm E 
060958Z AUTO 16014KT 10SM OVC080 17/08 A2956 RMK AO2 SLP014 T01660078 $
PABV 
16nm E 
060956Z AUTO 00000KT 10SM OVC085 14/12 A2959 RMK AO2 SLP026 T01440117
TAF
PAED 
10nm SE 
060200Z 0602/0708 19010G15KT 9999 SCT090 QNH2960INS BECMG 0606/0607 16006KT 9999 BKN060 QNH2941INS TX25/0602Z TN13/0612Z
PANC 
11nm S 
060524Z 0606/0712 15018G26KT P6SM VCSH FEW045 BKN100 BKN250 FM061400 13007KT P6SM VCSH SCT060 OVC090 FM062000 16015G25KT P6SM VCSH SCT030 BKN050
NOTAMs
Click for the latest NOTAMs
NOTAMs are issued by the DoD/FAA and will open in a separate window not controlled by AirNav.

 

 
 

Would you like to see your business listed on this page?

 If your business provides an interesting product or service to pilots, flight crews, aircraft, or users of the Flyway Farm Airstrip, you should consider listing it here.  To start the listing process, click on the button below
 
Add a business
 

Other Pages about Flyway Farm Airstrip

Update a link
 
Copyright © AirNav, LLC. All rights reserved. Privacy Policy  Contact